This is the latest recevied weather packets stored in our database for station/object EA1IXY-2. If no packets are shown the sender has not sent any weather packets the latest 10 day(s).
| Time | Temp. | Humidity | Pressure | Rain* | Wind** | Luminosity | Snow |
|---|---|---|---|---|---|---|---|
| 1777593200 | 38.89° C | 18% | 932.9 hPa | - | - | - | - |
| 1777592299 | 38.89° C | 18% | 932.9 hPa | - | - | - | - |
| 1777591399 | 38.89° C | 18% | 932.8 hPa | - | - | - | - |
| 1777590499 | 38.33° C | 18% | 932.9 hPa | - | - | - | - |
| 1777589599 | 38.89° C | 18% | 932.8 hPa | - | - | - | - |
| 1777588699 | 38.89° C | 18% | 932.8 hPa | - | - | - | - |
| 1777587799 | 37.78° C | 18% | 931.5 hPa | - | - | - | - |
| 1777586887 | 38.89° C | 18% | 932.8 hPa | - | - | - | - |
| 1777585987 | 38.89° C | 18% | 932.7 hPa | - | - | - | - |
| 1777585087 | 38.89° C | 18% | 932.7 hPa | - | - | - | - |
| 1777584187 | 38.89° C | 18% | 932.6 hPa | - | - | - | - |
| 1777583287 | 38.89° C | 18% | 932.7 hPa | - | - | - | - |
| 1777582386 | 39.44° C | 17% | 932.6 hPa | - | - | - | - |
| 1777581486 | 38.89° C | 18% | 932.4 hPa | - | - | - | - |
| 1777580586 | 38.89° C | 17% | 932.3 hPa | - | - | - | - |
| 1777579686 | 38.89° C | 17% | 932.1 hPa | - | - | - | - |
| 1777578786 | 37.78° C | 17% | 929.5 hPa | - | - | - | - |
| 1777577886 | 38.89° C | 18% | 931.7 hPa | - | - | - | - |
| 1777576986 | 37.78° C | 18% | 930.3 hPa | - | - | - | - |
| 1777576074 | 39.44° C | 18% | 931.4 hPa | - | - | - | - |
| 1777575174 | 38.89° C | 18% | 931.2 hPa | - | - | - | - |
| 1777574274 | 39.44° C | 17% | 931.2 hPa | - | - | - | - |
| 1777573374 | 39.44° C | 17% | 931.1 hPa | - | - | - | - |
| 1777572474 | 39.44° C | 17% | 931 hPa | - | - | - | - |
| 1777571573 | 38.89° C | 17% | 930.9 hPa | - | - | - | - |
* Rain since midnight (hover to see other rain measurements)
** Current wind speed in m/s (hover to see current wind gust speed)